LFML/MRS METAR and TAF weather

Enter ICAO airport designator
Station Type Date Time Source
LFML METAR 2019/02/16 17:00 UTC NOAA

LFML 161700Z AUTO 18006KT CAVOK 13/08 Q1029 NOSIG


Station Type Date Time Source
LFML Decoded METAR 2019/02/16 17:00 UTC NOAA

Marseille / Marignane, France (LFML) 43-27N 005-14E 36M
Feb 16, 2019 - 12:00 PM EST / 2019.02.16 1700 UTC
Wind: from the S (180 degrees) at 7 MPH (6 KT):0
Visibility: greater than 7 mile(s):0
Temperature: 55 F (13 C)
Dew Point: 46 F (8 C)
Relative Humidity: 71%
Pressure (altimeter): 30.39 in. Hg (1029 hPa)
ob: LFML 161700Z AUTO 18006KT CAVOK 13/08 Q1029 NOSIG
cycle: 17

Station Type Date Time Source
LFML TAF 2019/02/16 15:24 UTC NOAA

TAF TAF LFML 161400Z 1615/1721 VRB05KT CAVOK TX16/1615Z TN03/1703Z
TEMPO 1700/1708 2500 BR BKN004
BECMG 1710/1711 17010KT


Example: see airport list